sensor_id;sensor_type;location;lat;lon;timestamp;P1;durP1;ratioP1;P2;durP2;ratioP2
46266;SDS011;31998;48.798;15.066;2023-05-02T00:02:20;4.93;;;3.47;;
46266;SDS011;31998;48.798;15.066;2023-05-02T00:04:46;3.27;;;3.17;;
46266;SDS011;31998;48.798;15.066;2023-05-02T00:07:11;3.43;;;3.03;;
46266;SDS011;31998;48.798;15.066;2023-05-02T00:09:36;3.90;;;3.70;;
46266;SDS011;31998;48.798;15.066;2023-05-02T00:12:02;8.60;;;4.50;;
46266;SDS011;31998;48.798;15.066;2023-05-02T00:14:27;3.50;;;3.40;;
46266;SDS011;31998;48.798;15.066;2023-05-02T00:16:52;4.40;;;4.20;;
46266;SDS011;31998;48.798;15.066;2023-05-02T00:19:17;4.67;;;4.37;;
46266;SDS011;31998;48.798;15.066;2023-05-02T00:21:45;5.70;;;5.30;;
46266;SDS011;31998;48.798;15.066;2023-05-02T00:24:11;7.10;;;6.67;;
46266;SDS011;31998;48.798;15.066;2023-05-02T00:26:36;7.07;;;6.57;;
46266;SDS011;31998;48.798;15.066;2023-05-02T00:29:01;6.43;;;6.03;;
46266;SDS011;31998;48.798;15.066;2023-05-02T00:31:26;8.87;;;8.07;;
46266;SDS011;31998;48.798;15.066;2023-05-02T00:33:51;5.77;;;5.37;;
46266;SDS011;31998;48.798;15.066;2023-05-02T00:36:17;7.07;;;6.20;;
46266;SDS011;31998;48.798;15.066;2023-05-02T00:38:43;7.80;;;7.13;;
46266;SDS011;31998;48.798;15.066;2023-05-02T00:41:08;7.73;;;6.30;;
46266;SDS011;31998;48.798;15.066;2023-05-02T00:43:34;5.37;;;5.07;;
46266;SDS011;31998;48.798;15.066;2023-05-02T00:46:00;6.03;;;5.67;;
46266;SDS011;31998;48.798;15.066;2023-05-02T00:48:25;5.40;;;5.17;;
46266;SDS011;31998;48.798;15.066;2023-05-02T00:50:51;5.40;;;5.10;;
46266;SDS011;31998;48.798;15.066;2023-05-02T00:53:16;5.00;;;4.70;;
46266;SDS011;31998;48.798;15.066;2023-05-02T00:55:41;6.07;;;5.50;;
46266;SDS011;31998;48.798;15.066;2023-05-02T00:58:11;4.80;;;4.50;;
46266;SDS011;31998;48.798;15.066;2023-05-02T01:00:54;5.77;;;5.23;;
46266;SDS011;31998;48.798;15.066;2023-05-02T01:06:04;12.80;;;5.33;;
46266;SDS011;31998;48.798;15.066;2023-05-02T01:08:36;4.53;;;4.33;;
46266;SDS011;31998;48.798;15.066;2023-05-02T01:13:31;5.37;;;4.30;;
46266;SDS011;31998;48.798;15.066;2023-05-02T01:15:57;4.87;;;4.57;;
46266;SDS011;31998;48.798;15.066;2023-05-02T01:18:23;4.20;;;4.00;;
46266;SDS011;31998;48.798;15.066;2023-05-02T01:20:55;4.83;;;4.40;;
46266;SDS011;31998;48.798;15.066;2023-05-02T01:23:36;5.00;;;4.70;;
46266;SDS011;31998;48.798;15.066;2023-05-02T01:31:17;5.20;;;4.83;;
46266;SDS011;31998;48.798;15.066;2023-05-02T01:33:42;4.67;;;4.27;;
46266;SDS011;31998;48.798;15.066;2023-05-02T01:36:08;5.57;;;5.03;;
46266;SDS011;31998;48.798;15.066;2023-05-02T01:38:34;6.67;;;4.70;;
46266;SDS011;31998;48.798;15.066;2023-05-02T01:41:01;5.23;;;4.93;;
46266;SDS011;31998;48.798;15.066;2023-05-02T01:43:29;4.30;;;4.10;;
46266;SDS011;31998;48.798;15.066;2023-05-02T01:45:55;4.13;;;3.83;;
46266;SDS011;31998;48.798;15.066;2023-05-02T01:48:21;4.77;;;4.47;;
46266;SDS011;31998;48.798;15.066;2023-05-02T01:50:47;5.13;;;4.73;;
46266;SDS011;31998;48.798;15.066;2023-05-02T01:53:14;5.10;;;4.80;;
46266;SDS011;31998;48.798;15.066;2023-05-02T01:55:41;4.83;;;4.53;;
46266;SDS011;31998;48.798;15.066;2023-05-02T01:58:07;4.10;;;3.90;;
46266;SDS011;31998;48.798;15.066;2023-05-02T02:00:33;6.07;;;4.40;;
46266;SDS011;31998;48.798;15.066;2023-05-02T02:02:58;5.20;;;4.80;;
46266;SDS011;31998;48.798;15.066;2023-05-02T02:05:24;5.20;;;5.00;;
46266;SDS011;31998;48.798;15.066;2023-05-02T02:07:50;5.13;;;4.83;;
46266;SDS011;31998;48.798;15.066;2023-05-02T02:10:16;5.53;;;5.23;;
46266;SDS011;31998;48.798;15.066;2023-05-02T02:12:42;5.87;;;5.57;;
46266;SDS011;31998;48.798;15.066;2023-05-02T02:15:31;5.20;;;4.63;;
46266;SDS011;31998;48.798;15.066;2023-05-02T02:18:28;5.60;;;5.30;;
46266;SDS011;31998;48.798;15.066;2023-05-02T02:20:46;4.73;;;4.47;;
46266;SDS011;31998;48.798;15.066;2023-05-02T02:23:12;4.90;;;4.60;;
46266;SDS011;31998;48.798;15.066;2023-05-02T02:25:38;5.50;;;5.00;;
46266;SDS011;31998;48.798;15.066;2023-05-02T02:28:05;5.90;;;5.50;;
46266;SDS011;31998;48.798;15.066;2023-05-02T02:30:30;10.00;;;5.90;;
46266;SDS011;31998;48.798;15.066;2023-05-02T02:32:56;5.87;;;5.47;;
46266;SDS011;31998;48.798;15.066;2023-05-02T02:35:21;6.67;;;6.20;;
46266;SDS011;31998;48.798;15.066;2023-05-02T02:38:09;6.53;;;5.37;;
46266;SDS011;31998;48.798;15.066;2023-05-02T02:40:44;6.07;;;5.67;;
46266;SDS011;31998;48.798;15.066;2023-05-02T02:45:38;5.73;;;5.30;;
46266;SDS011;31998;48.798;15.066;2023-05-02T02:48:10;5.67;;;5.20;;
46266;SDS011;31998;48.798;15.066;2023-05-02T02:50:42;6.47;;;6.13;;
46266;SDS011;31998;48.798;15.066;2023-05-02T02:53:16;5.30;;;5.00;;
46266;SDS011;31998;48.798;15.066;2023-05-02T03:00:35;6.10;;;4.87;;
46266;SDS011;31998;48.798;15.066;2023-05-02T03:03:00;7.53;;;6.60;;
46266;SDS011;31998;48.798;15.066;2023-05-02T03:05:26;6.10;;;5.70;;
46266;SDS011;31998;48.798;15.066;2023-05-02T03:07:51;7.33;;;6.03;;
46266;SDS011;31998;48.798;15.066;2023-05-02T03:10:17;9.17;;;5.90;;
46266;SDS011;31998;48.798;15.066;2023-05-02T03:12:42;5.60;;;5.30;;
46266;SDS011;31998;48.798;15.066;2023-05-02T03:17:39;5.87;;;5.57;;
46266;SDS011;31998;48.798;15.066;2023-05-02T03:20:04;6.50;;;5.97;;
46266;SDS011;31998;48.798;15.066;2023-05-02T03:22:30;6.17;;;5.67;;
46266;SDS011;31998;48.798;15.066;2023-05-02T03:24:55;5.87;;;5.43;;
46266;SDS011;31998;48.798;15.066;2023-05-02T03:27:20;6.03;;;5.63;;
46266;SDS011;31998;48.798;15.066;2023-05-02T03:29:45;5.33;;;4.93;;
46266;SDS011;31998;48.798;15.066;2023-05-02T03:32:11;5.83;;;5.53;;
46266;SDS011;31998;48.798;15.066;2023-05-02T03:34:37;6.13;;;5.77;;
46266;SDS011;31998;48.798;15.066;2023-05-02T03:37:02;7.40;;;6.90;;
46266;SDS011;31998;48.798;15.066;2023-05-02T03:39:27;7.97;;;7.23;;
46266;SDS011;31998;48.798;15.066;2023-05-02T03:41:52;6.50;;;6.10;;
46266;SDS011;31998;48.798;15.066;2023-05-02T03:44:18;7.27;;;6.57;;
46266;SDS011;31998;48.798;15.066;2023-05-02T03:46:43;7.40;;;5.30;;
46266;SDS011;31998;48.798;15.066;2023-05-02T03:49:08;6.83;;;6.40;;
46266;SDS011;31998;48.798;15.066;2023-05-02T03:51:33;6.70;;;6.20;;
46266;SDS011;31998;48.798;15.066;2023-05-02T03:54:00;12.30;;;10.27;;
46266;SDS011;31998;48.798;15.066;2023-05-02T03:56:26;8.13;;;7.50;;
46266;SDS011;31998;48.798;15.066;2023-05-02T03:58:51;7.40;;;6.90;;
46266;SDS011;31998;48.798;15.066;2023-05-02T04:01:17;7.27;;;6.70;;
46266;SDS011;31998;48.798;15.066;2023-05-02T04:03:42;7.03;;;6.53;;
46266;SDS011;31998;48.798;15.066;2023-05-02T04:06:07;6.60;;;6.00;;
46266;SDS011;31998;48.798;15.066;2023-05-02T04:08:33;6.97;;;6.27;;
46266;SDS011;31998;48.798;15.066;2023-05-02T04:10:58;6.73;;;6.10;;
46266;SDS011;31998;48.798;15.066;2023-05-02T04:13:23;7.50;;;6.20;;
46266;SDS011;31998;48.798;15.066;2023-05-02T04:15:48;8.10;;;6.37;;
46266;SDS011;31998;48.798;15.066;2023-05-02T04:18:14;6.93;;;6.43;;
46266;SDS011;31998;48.798;15.066;2023-05-02T04:20:41;6.60;;;6.20;;
46266;SDS011;31998;48.798;15.066;2023-05-02T04:23:07;6.53;;;6.03;;
46266;SDS011;31998;48.798;15.066;2023-05-02T04:25:32;7.00;;;5.93;;
46266;SDS011;31998;48.798;15.066;2023-05-02T04:27:57;6.23;;;5.83;;
46266;SDS011;31998;48.798;15.066;2023-05-02T04:30:22;7.50;;;6.90;;
46266;SDS011;31998;48.798;15.066;2023-05-02T04:32:47;6.70;;;6.20;;
46266;SDS011;31998;48.798;15.066;2023-05-02T04:35:13;8.87;;;6.10;;
46266;SDS011;31998;48.798;15.066;2023-05-02T04:37:39;7.50;;;6.70;;
46266;SDS011;31998;48.798;15.066;2023-05-02T04:40:04;9.60;;;7.07;;
46266;SDS011;31998;48.798;15.066;2023-05-02T04:42:30;6.67;;;6.10;;
46266;SDS011;31998;48.798;15.066;2023-05-02T04:44:55;6.10;;;5.80;;
46266;SDS011;31998;48.798;15.066;2023-05-02T04:47:21;7.03;;;6.57;;
46266;SDS011;31998;48.798;15.066;2023-05-02T04:49:46;7.60;;;7.10;;
46266;SDS011;31998;48.798;15.066;2023-05-02T04:52:11;8.43;;;7.20;;
46266;SDS011;31998;48.798;15.066;2023-05-02T04:54:36;12.73;;;7.10;;
46266;SDS011;31998;48.798;15.066;2023-05-02T04:57:02;8.40;;;6.97;;
46266;SDS011;31998;48.798;15.066;2023-05-02T04:59:30;14.00;;;7.17;;
46266;SDS011;31998;48.798;15.066;2023-05-02T05:01:55;22.47;;;7.93;;
46266;SDS011;31998;48.798;15.066;2023-05-02T05:04:21;12.27;;;7.23;;
46266;SDS011;31998;48.798;15.066;2023-05-02T05:06:46;10.37;;;7.43;;
46266;SDS011;31998;48.798;15.066;2023-05-02T05:09:13;7.37;;;6.63;;
46266;SDS011;31998;48.798;15.066;2023-05-02T05:11:38;8.17;;;6.20;;
46266;SDS011;31998;48.798;15.066;2023-05-02T05:14:03;11.67;;;7.07;;
46266;SDS011;31998;48.798;15.066;2023-05-02T05:16:28;7.77;;;7.07;;
46266;SDS011;31998;48.798;15.066;2023-05-02T05:18:54;7.70;;;7.13;;
46266;SDS011;31998;48.798;15.066;2023-05-02T05:21:19;8.57;;;7.27;;
46266;SDS011;31998;48.798;15.066;2023-05-02T05:23:45;7.70;;;7.10;;
46266;SDS011;31998;48.798;15.066;2023-05-02T05:26:12;7.57;;;6.80;;
46266;SDS011;31998;48.798;15.066;2023-05-02T05:28:37;7.30;;;6.90;;
46266;SDS011;31998;48.798;15.066;2023-05-02T05:31:06;8.83;;;7.30;;
46266;SDS011;31998;48.798;15.066;2023-05-02T05:33:32;13.40;;;7.50;;
46266;SDS011;31998;48.798;15.066;2023-05-02T05:36:02;11.83;;;7.67;;
46266;SDS011;31998;48.798;15.066;2023-05-02T05:38:27;19.97;;;8.50;;
46266;SDS011;31998;48.798;15.066;2023-05-02T05:40:53;32.33;;;9.90;;
46266;SDS011;31998;48.798;15.066;2023-05-02T05:43:18;33.30;;;8.80;;
46266;SDS011;31998;48.798;15.066;2023-05-02T05:45:43;25.13;;;9.40;;
46266;SDS011;31998;48.798;15.066;2023-05-02T05:48:09;21.83;;;8.90;;
46266;SDS011;31998;48.798;15.066;2023-05-02T05:50:34;12.17;;;9.00;;
46266;SDS011;31998;48.798;15.066;2023-05-02T05:52:59;15.93;;;8.77;;
46266;SDS011;31998;48.798;15.066;2023-05-02T05:55:26;12.73;;;9.20;;
46266;SDS011;31998;48.798;15.066;2023-05-02T05:57:51;10.60;;;9.70;;
46266;SDS011;31998;48.798;15.066;2023-05-02T06:00:16;11.27;;;10.17;;
46266;SDS011;31998;48.798;15.066;2023-05-02T06:02:42;10.60;;;9.20;;
46266;SDS011;31998;48.798;15.066;2023-05-02T06:05:07;10.10;;;9.30;;
46266;SDS011;31998;48.798;15.066;2023-05-02T06:07:32;9.23;;;8.60;;
46266;SDS011;31998;48.798;15.066;2023-05-02T06:09:57;9.20;;;8.20;;
46266;SDS011;31998;48.798;15.066;2023-05-02T06:12:22;9.20;;;8.23;;
46266;SDS011;31998;48.798;15.066;2023-05-02T06:14:48;10.00;;;8.23;;
46266;SDS011;31998;48.798;15.066;2023-05-02T06:17:13;8.20;;;7.50;;
46266;SDS011;31998;48.798;15.066;2023-05-02T06:19:38;8.83;;;8.13;;
46266;SDS011;31998;48.798;15.066;2023-05-02T06:22:03;8.00;;;7.23;;
46266;SDS011;31998;48.798;15.066;2023-05-02T06:24:29;9.73;;;8.83;;
46266;SDS011;31998;48.798;15.066;2023-05-02T06:26:54;10.30;;;9.40;;
46266;SDS011;31998;48.798;15.066;2023-05-02T06:29:19;9.37;;;8.20;;
46266;SDS011;31998;48.798;15.066;2023-05-02T06:31:45;9.83;;;8.93;;
46266;SDS011;31998;48.798;15.066;2023-05-02T06:34:10;8.07;;;7.53;;
46266;SDS011;31998;48.798;15.066;2023-05-02T06:36:35;7.40;;;6.80;;
46266;SDS011;31998;48.798;15.066;2023-05-02T06:39:02;13.30;;;8.60;;
46266;SDS011;31998;48.798;15.066;2023-05-02T06:41:28;9.13;;;8.33;;
46266;SDS011;31998;48.798;15.066;2023-05-02T06:43:53;8.57;;;7.93;;
46266;SDS011;31998;48.798;15.066;2023-05-02T06:46:18;8.70;;;8.10;;
46266;SDS011;31998;48.798;15.066;2023-05-02T06:48:44;8.63;;;7.93;;
46266;SDS011;31998;48.798;15.066;2023-05-02T06:51:10;8.90;;;8.03;;
46266;SDS011;31998;48.798;15.066;2023-05-02T06:53:35;8.73;;;7.97;;
46266;SDS011;31998;48.798;15.066;2023-05-02T06:56:01;8.60;;;7.80;;
46266;SDS011;31998;48.798;15.066;2023-05-02T06:58:27;8.70;;;8.10;;
46266;SDS011;31998;48.798;15.066;2023-05-02T07:00:54;8.57;;;8.00;;
46266;SDS011;31998;48.798;15.066;2023-05-02T07:03:19;7.90;;;7.20;;
46266;SDS011;31998;48.798;15.066;2023-05-02T07:05:44;7.70;;;7.10;;
46266;SDS011;31998;48.798;15.066;2023-05-02T07:08:09;8.30;;;7.70;;
46266;SDS011;31998;48.798;15.066;2023-05-02T07:10:38;8.23;;;7.60;;
46266;SDS011;31998;48.798;15.066;2023-05-02T07:13:03;7.57;;;7.07;;
46266;SDS011;31998;48.798;15.066;2023-05-02T07:15:28;8.40;;;7.80;;
46266;SDS011;31998;48.798;15.066;2023-05-02T07:17:54;8.87;;;8.10;;
46266;SDS011;31998;48.798;15.066;2023-05-02T07:20:19;8.60;;;7.90;;
46266;SDS011;31998;48.798;15.066;2023-05-02T07:22:44;8.33;;;7.70;;
46266;SDS011;31998;48.798;15.066;2023-05-02T07:25:10;7.23;;;6.83;;
46266;SDS011;31998;48.798;15.066;2023-05-02T07:27:35;7.27;;;6.73;;
46266;SDS011;31998;48.798;15.066;2023-05-02T07:30:00;8.50;;;7.90;;
46266;SDS011;31998;48.798;15.066;2023-05-02T07:32:25;7.63;;;7.13;;
46266;SDS011;31998;48.798;15.066;2023-05-02T07:34:51;8.47;;;7.60;;
46266;SDS011;31998;48.798;15.066;2023-05-02T07:37:18;15.50;;;7.27;;
46266;SDS011;31998;48.798;15.066;2023-05-02T07:39:43;8.20;;;7.53;;
46266;SDS011;31998;48.798;15.066;2023-05-02T07:42:09;7.67;;;6.97;;
46266;SDS011;31998;48.798;15.066;2023-05-02T07:44:34;8.33;;;7.73;;
46266;SDS011;31998;48.798;15.066;2023-05-02T07:47:00;7.30;;;6.80;;
46266;SDS011;31998;48.798;15.066;2023-05-02T07:49:25;8.50;;;7.63;;
46266;SDS011;31998;48.798;15.066;2023-05-02T07:51:50;6.77;;;6.37;;
46266;SDS011;31998;48.798;15.066;2023-05-02T07:54:16;7.97;;;7.10;;
46266;SDS011;31998;48.798;15.066;2023-05-02T07:56:42;7.37;;;6.70;;
46266;SDS011;31998;48.798;15.066;2023-05-02T07:59:08;8.00;;;6.47;;
46266;SDS011;31998;48.798;15.066;2023-05-02T08:01:34;7.57;;;7.03;;
46266;SDS011;31998;48.798;15.066;2023-05-02T08:03:59;11.50;;;7.53;;
46266;SDS011;31998;48.798;15.066;2023-05-02T08:06:24;6.97;;;6.23;;
46266;SDS011;31998;48.798;15.066;2023-05-02T08:08:50;7.23;;;5.37;;
46266;SDS011;31998;48.798;15.066;2023-05-02T08:11:15;7.70;;;7.00;;
46266;SDS011;31998;48.798;15.066;2023-05-02T08:13:40;7.13;;;6.53;;
46266;SDS011;31998;48.798;15.066;2023-05-02T08:16:05;6.90;;;6.40;;
46266;SDS011;31998;48.798;15.066;2023-05-02T08:18:31;8.63;;;6.50;;
46266;SDS011;31998;48.798;15.066;2023-05-02T08:20:56;6.50;;;5.90;;
46266;SDS011;31998;48.798;15.066;2023-05-02T08:23:24;7.07;;;6.37;;
46266;SDS011;31998;48.798;15.066;2023-05-02T08:25:49;6.50;;;6.00;;
46266;SDS011;31998;48.798;15.066;2023-05-02T08:28:14;6.23;;;5.83;;
46266;SDS011;31998;48.798;15.066;2023-05-02T08:30:40;10.53;;;6.87;;
46266;SDS011;31998;48.798;15.066;2023-05-02T08:33:05;7.37;;;6.80;;
46266;SDS011;31998;48.798;15.066;2023-05-02T08:35:30;6.73;;;6.33;;
46266;SDS011;31998;48.798;15.066;2023-05-02T08:37:56;6.93;;;6.40;;
46266;SDS011;31998;48.798;15.066;2023-05-02T08:40:21;6.53;;;5.93;;
46266;SDS011;31998;48.798;15.066;2023-05-02T08:42:47;7.70;;;6.13;;
46266;SDS011;31998;48.798;15.066;2023-05-02T08:45:12;6.83;;;6.13;;
46266;SDS011;31998;48.798;15.066;2023-05-02T08:47:41;8.40;;;6.73;;
46266;SDS011;31998;48.798;15.066;2023-05-02T08:50:09;5.70;;;5.30;;
46266;SDS011;31998;48.798;15.066;2023-05-02T08:52:36;7.20;;;6.60;;
46266;SDS011;31998;48.798;15.066;2023-05-02T08:55:01;6.37;;;5.87;;
46266;SDS011;31998;48.798;15.066;2023-05-02T08:57:30;7.07;;;6.40;;
46266;SDS011;31998;48.798;15.066;2023-05-02T08:59:56;7.23;;;6.50;;
46266;SDS011;31998;48.798;15.066;2023-05-02T09:04:53;6.73;;;6.13;;
46266;SDS011;31998;48.798;15.066;2023-05-02T09:07:18;6.43;;;6.03;;
46266;SDS011;31998;48.798;15.066;2023-05-02T09:09:44;7.17;;;6.70;;
46266;SDS011;31998;48.798;15.066;2023-05-02T09:12:09;6.27;;;5.67;;
46266;SDS011;31998;48.798;15.066;2023-05-02T09:14:34;6.13;;;5.70;;
46266;SDS011;31998;48.798;15.066;2023-05-02T09:17:00;7.07;;;6.47;;
46266;SDS011;31998;48.798;15.066;2023-05-02T09:19:25;5.93;;;5.33;;
46266;SDS011;31998;48.798;15.066;2023-05-02T09:21:50;5.80;;;5.30;;
46266;SDS011;31998;48.798;15.066;2023-05-02T09:24:17;5.53;;;5.23;;
46266;SDS011;31998;48.798;15.066;2023-05-02T09:26:42;6.60;;;5.67;;
46266;SDS011;31998;48.798;15.066;2023-05-02T09:29:07;6.27;;;5.47;;
46266;SDS011;31998;48.798;15.066;2023-05-02T09:31:33;6.30;;;5.33;;
46266;SDS011;31998;48.798;15.066;2023-05-02T09:36:37;5.03;;;4.73;;
46266;SDS011;31998;48.798;15.066;2023-05-02T09:39:07;5.60;;;5.20;;
46266;SDS011;31998;48.798;15.066;2023-05-02T09:41:40;6.33;;;5.10;;
46266;SDS011;31998;48.798;15.066;2023-05-02T09:44:08;6.63;;;6.00;;
46266;SDS011;31998;48.798;15.066;2023-05-02T09:46:38;5.93;;;5.53;;
46266;SDS011;31998;48.798;15.066;2023-05-02T09:49:04;5.93;;;5.20;;
46266;SDS011;31998;48.798;15.066;2023-05-02T09:51:29;6.20;;;5.60;;
46266;SDS011;31998;48.798;15.066;2023-05-02T09:53:55;5.73;;;4.57;;
46266;SDS011;31998;48.798;15.066;2023-05-02T09:56:20;5.83;;;5.47;;
46266;SDS011;31998;48.798;15.066;2023-05-02T09:58:45;6.37;;;5.90;;
46266;SDS011;31998;48.798;15.066;2023-05-02T10:01:14;7.97;;;5.10;;
46266;SDS011;31998;48.798;15.066;2023-05-02T10:03:41;8.53;;;4.63;;
46266;SDS011;31998;48.798;15.066;2023-05-02T10:06:07;5.90;;;5.37;;
46266;SDS011;31998;48.798;15.066;2023-05-02T10:08:32;6.83;;;5.60;;
46266;SDS011;31998;48.798;15.066;2023-05-02T10:10:58;5.87;;;5.47;;
46266;SDS011;31998;48.798;15.066;2023-05-02T10:13:24;5.80;;;5.23;;
46266;SDS011;31998;48.798;15.066;2023-05-02T10:16:00;7.70;;;5.07;;
46266;SDS011;31998;48.798;15.066;2023-05-02T10:18:47;5.10;;;4.80;;
46266;SDS011;31998;48.798;15.066;2023-05-02T10:21:13;5.40;;;5.00;;
46266;SDS011;31998;48.798;15.066;2023-05-02T10:23:40;6.17;;;5.27;;
46266;SDS011;31998;48.798;15.066;2023-05-02T10:26:07;5.10;;;4.70;;
46266;SDS011;31998;48.798;15.066;2023-05-02T10:28:32;4.93;;;4.70;;
46266;SDS011;31998;48.798;15.066;2023-05-02T10:30:59;5.13;;;4.73;;
46266;SDS011;31998;48.798;15.066;2023-05-02T10:33:25;7.50;;;6.67;;
46266;SDS011;31998;48.798;15.066;2023-05-02T10:35:50;6.33;;;5.80;;
46266;SDS011;31998;48.798;15.066;2023-05-02T10:38:17;6.27;;;5.97;;
46266;SDS011;31998;48.798;15.066;2023-05-02T10:40:46;5.87;;;5.40;;
46266;SDS011;31998;48.798;15.066;2023-05-02T10:43:14;12.37;;;5.67;;
46266;SDS011;31998;48.798;15.066;2023-05-02T10:45:39;5.77;;;5.30;;
46266;SDS011;31998;48.798;15.066;2023-05-02T10:53:21;5.67;;;4.93;;
46266;SDS011;31998;48.798;15.066;2023-05-02T10:56:06;6.20;;;5.70;;
46266;SDS011;31998;48.798;15.066;2023-05-02T10:58:31;6.53;;;6.00;;
46266;SDS011;31998;48.798;15.066;2023-05-02T11:01:23;5.23;;;4.60;;
46266;SDS011;31998;48.798;15.066;2023-05-02T11:06:20;7.47;;;6.80;;
46266;SDS011;31998;48.798;15.066;2023-05-02T11:08:45;7.37;;;5.60;;
46266;SDS011;31998;48.798;15.066;2023-05-02T11:11:56;7.43;;;6.80;;
46266;SDS011;31998;48.798;15.066;2023-05-02T11:13:56;5.87;;;5.30;;
46266;SDS011;31998;48.798;15.066;2023-05-02T11:16:21;8.60;;;5.40;;
46266;SDS011;31998;48.798;15.066;2023-05-02T11:18:59;7.13;;;5.10;;
46266;SDS011;31998;48.798;15.066;2023-05-02T11:21:28;7.20;;;5.23;;
46266;SDS011;31998;48.798;15.066;2023-05-02T11:24:35;5.93;;;5.20;;
46266;SDS011;31998;48.798;15.066;2023-05-02T11:26:38;5.90;;;5.40;;
46266;SDS011;31998;48.798;15.066;2023-05-02T11:29:03;6.30;;;5.70;;
46266;SDS011;31998;48.798;15.066;2023-05-02T11:34:00;6.60;;;5.90;;
46266;SDS011;31998;48.798;15.066;2023-05-02T11:36:27;8.80;;;5.77;;
46266;SDS011;31998;48.798;15.066;2023-05-02T11:38:53;6.70;;;5.30;;
46266;SDS011;31998;48.798;15.066;2023-05-02T11:41:18;11.67;;;5.93;;
46266;SDS011;31998;48.798;15.066;2023-05-02T11:43:44;9.57;;;6.00;;
46266;SDS011;31998;48.798;15.066;2023-05-02T11:46:10;7.00;;;5.77;;
46266;SDS011;31998;48.798;15.066;2023-05-02T11:48:35;6.27;;;5.67;;
46266;SDS011;31998;48.798;15.066;2023-05-02T11:51:01;6.50;;;6.00;;
46266;SDS011;31998;48.798;15.066;2023-05-02T11:53:28;7.00;;;6.33;;
46266;SDS011;31998;48.798;15.066;2023-05-02T11:55:54;6.20;;;5.80;;
46266;SDS011;31998;48.798;15.066;2023-05-02T11:58:20;7.03;;;5.87;;
46266;SDS011;31998;48.798;15.066;2023-05-02T12:00:46;6.43;;;5.63;;
46266;SDS011;31998;48.798;15.066;2023-05-02T12:03:21;8.20;;;7.50;;
46266;SDS011;31998;48.798;15.066;2023-05-02T12:05:47;10.03;;;8.87;;
46266;SDS011;31998;48.798;15.066;2023-05-02T12:08:17;7.83;;;6.60;;
46266;SDS011;31998;48.798;15.066;2023-05-02T12:10:43;5.73;;;5.27;;
46266;SDS011;31998;48.798;15.066;2023-05-02T12:13:09;8.20;;;7.43;;
46266;SDS011;31998;48.798;15.066;2023-05-02T12:15:35;6.23;;;5.80;;
46266;SDS011;31998;48.798;15.066;2023-05-02T12:18:00;6.27;;;5.77;;
46266;SDS011;31998;48.798;15.066;2023-05-02T12:20:26;5.57;;;5.27;;
46266;SDS011;31998;48.798;15.066;2023-05-02T12:22:51;6.60;;;6.20;;
46266;SDS011;31998;48.798;15.066;2023-05-02T12:25:16;6.13;;;5.73;;
46266;SDS011;31998;48.798;15.066;2023-05-02T12:27:41;6.53;;;6.00;;
46266;SDS011;31998;48.798;15.066;2023-05-02T12:30:28;11.23;;;6.83;;
46266;SDS011;31998;48.798;15.066;2023-05-02T12:32:57;10.73;;;6.70;;
46266;SDS011;31998;48.798;15.066;2023-05-02T12:35:22;6.43;;;6.03;;
46266;SDS011;31998;48.798;15.066;2023-05-02T12:37:48;7.03;;;6.33;;
46266;SDS011;31998;48.798;15.066;2023-05-02T12:40:16;6.60;;;6.10;;
46266;SDS011;31998;48.798;15.066;2023-05-02T12:42:41;7.40;;;6.30;;
46266;SDS011;31998;48.798;15.066;2023-05-02T12:45:16;7.53;;;6.43;;
46266;SDS011;31998;48.798;15.066;2023-05-02T12:47:44;11.17;;;6.57;;
46266;SDS011;31998;48.798;15.066;2023-05-02T12:50:13;7.50;;;6.03;;
46266;SDS011;31998;48.798;15.066;2023-05-02T12:52:51;10.57;;;6.50;;
46266;SDS011;31998;48.798;15.066;2023-05-02T12:55:23;7.23;;;6.53;;
46266;SDS011;31998;48.798;15.066;2023-05-02T12:57:49;8.63;;;6.43;;
46266;SDS011;31998;48.798;15.066;2023-05-02T13:00:15;6.37;;;5.97;;
46266;SDS011;31998;48.798;15.066;2023-05-02T13:02:40;14.87;;;6.73;;
46266;SDS011;31998;48.798;15.066;2023-05-02T13:05:15;7.50;;;6.87;;
46266;SDS011;31998;48.798;15.066;2023-05-02T13:07:40;6.63;;;5.77;;
46266;SDS011;31998;48.798;15.066;2023-05-02T13:10:06;12.53;;;6.20;;
46266;SDS011;31998;48.798;15.066;2023-05-02T13:12:31;6.00;;;5.47;;
46266;SDS011;31998;48.798;15.066;2023-05-02T13:14:56;7.10;;;5.90;;
46266;SDS011;31998;48.798;15.066;2023-05-02T13:17:21;6.80;;;6.10;;
46266;SDS011;31998;48.798;15.066;2023-05-02T13:19:47;7.20;;;6.50;;
46266;SDS011;31998;48.798;15.066;2023-05-02T13:22:12;7.17;;;6.40;;
46266;SDS011;31998;48.798;15.066;2023-05-02T13:24:37;11.33;;;6.87;;
46266;SDS011;31998;48.798;15.066;2023-05-02T13:27:02;6.13;;;5.63;;
46266;SDS011;31998;48.798;15.066;2023-05-02T13:29:28;6.60;;;6.10;;
46266;SDS011;31998;48.798;15.066;2023-05-02T13:31:53;6.47;;;5.97;;
46266;SDS011;31998;48.798;15.066;2023-05-02T13:34:18;5.30;;;4.93;;
46266;SDS011;31998;48.798;15.066;2023-05-02T13:36:44;6.93;;;6.23;;
46266;SDS011;31998;48.798;15.066;2023-05-02T13:39:10;8.87;;;6.80;;
46266;SDS011;31998;48.798;15.066;2023-05-02T13:41:35;5.77;;;5.30;;
46266;SDS011;31998;48.798;15.066;2023-05-02T13:44:01;7.50;;;5.90;;
46266;SDS011;31998;48.798;15.066;2023-05-02T13:46:26;6.53;;;5.93;;
46266;SDS011;31998;48.798;15.066;2023-05-02T13:48:51;5.97;;;5.33;;
46266;SDS011;31998;48.798;15.066;2023-05-02T13:51:16;8.40;;;6.50;;
46266;SDS011;31998;48.798;15.066;2023-05-02T13:53:42;6.27;;;5.77;;
46266;SDS011;31998;48.798;15.066;2023-05-02T13:56:07;6.50;;;5.40;;
46266;SDS011;31998;48.798;15.066;2023-05-02T13:58:32;6.10;;;5.30;;
46266;SDS011;31998;48.798;15.066;2023-05-02T14:00:58;7.10;;;5.57;;
46266;SDS011;31998;48.798;15.066;2023-05-02T14:03:23;9.23;;;5.70;;
46266;SDS011;31998;48.798;15.066;2023-05-02T14:05:48;5.80;;;5.30;;
46266;SDS011;31998;48.798;15.066;2023-05-02T14:08:13;12.87;;;6.00;;
46266;SDS011;31998;48.798;15.066;2023-05-02T14:10:42;6.07;;;5.67;;
46266;SDS011;31998;48.798;15.066;2023-05-02T14:13:07;7.10;;;6.07;;
46266;SDS011;31998;48.798;15.066;2023-05-02T14:15:32;7.63;;;6.03;;
46266;SDS011;31998;48.798;15.066;2023-05-02T14:17:57;8.70;;;5.53;;
46266;SDS011;31998;48.798;15.066;2023-05-02T14:20:23;6.87;;;6.17;;
46266;SDS011;31998;48.798;15.066;2023-05-02T14:22:48;6.77;;;6.27;;
46266;SDS011;31998;48.798;15.066;2023-05-02T14:25:14;6.30;;;5.30;;
46266;SDS011;31998;48.798;15.066;2023-05-02T14:27:40;6.57;;;6.03;;
46266;SDS011;31998;48.798;15.066;2023-05-02T14:30:06;5.20;;;4.87;;
46266;SDS011;31998;48.798;15.066;2023-05-02T14:32:32;7.73;;;5.40;;
46266;SDS011;31998;48.798;15.066;2023-05-02T14:34:57;7.83;;;5.83;;
46266;SDS011;31998;48.798;15.066;2023-05-02T14:37:23;6.33;;;5.73;;
46266;SDS011;31998;48.798;15.066;2023-05-02T14:39:48;10.87;;;5.13;;
46266;SDS011;31998;48.798;15.066;2023-05-02T14:42:16;7.00;;;6.40;;
46266;SDS011;31998;48.798;15.066;2023-05-02T14:44:41;7.13;;;5.63;;
46266;SDS011;31998;48.798;15.066;2023-05-02T14:47:07;9.90;;;6.67;;
46266;SDS011;31998;48.798;15.066;2023-05-02T14:49:32;5.53;;;5.30;;
46266;SDS011;31998;48.798;15.066;2023-05-02T14:51:57;6.80;;;6.20;;
46266;SDS011;31998;48.798;15.066;2023-05-02T14:54:26;5.80;;;5.27;;
46266;SDS011;31998;48.798;15.066;2023-05-02T14:56:52;5.93;;;5.50;;
46266;SDS011;31998;48.798;15.066;2023-05-02T14:59:17;5.83;;;5.33;;
46266;SDS011;31998;48.798;15.066;2023-05-02T15:01:43;6.90;;;4.97;;
46266;SDS011;31998;48.798;15.066;2023-05-02T15:04:08;5.80;;;5.30;;
46266;SDS011;31998;48.798;15.066;2023-05-02T15:06:34;6.63;;;4.97;;